sensor_id;sensor_type;location;lat;lon;timestamp;pressure;altitude;pressure_sealevel;temperature;humidity
45864;BME280;31579;52.354;16.974;2023-05-20T00:00:56;457.9;;;-146.1;100.0
45864;BME280;31579;52.354;16.974;2023-05-20T00:02:00;460.5;;;-146.1;100.0
45864;BME280;31579;52.354;16.974;2023-05-20T00:03:04;461.2;;;-146.1;100.0
45864;BME280;31579;52.354;16.974;2023-05-20T00:04:08;462.3;;;-146.1;100.0
45864;BME280;31579;52.354;16.974;2023-05-20T00:05:12;462.5;;;-146.1;100.0
45864;BME280;31579;52.354;16.974;2023-05-20T00:06:16;462.0;;;-146.1;100.0
45864;BME280;31579;52.354;16.974;2023-05-20T00:07:20;462.0;;;-146.1;100.0
45864;BME280;31579;52.354;16.974;2023-05-20T00:08:24;462.7;;;-146.1;100.0
45864;BME280;31579;52.354;16.974;2023-05-20T00:09:28;462.3;;;-146.1;100.0
45864;BME280;31579;52.354;16.974;2023-05-20T00:10:33;463.7;;;-146.1;100.0
45864;BME280;31579;52.354;16.974;2023-05-20T00:11:37;464.2;;;-146.1;100.0
45864;BME280;31579;52.354;16.974;2023-05-20T00:12:41;464.7;;;-146.1;100.0
45864;BME280;31579;52.354;16.974;2023-05-20T00:13:45;466.2;;;-146.1;100.0
45864;BME280;31579;52.354;16.974;2023-05-20T00:14:49;466.1;;;-146.1;100.0
45864;BME280;31579;52.354;16.974;2023-05-20T00:15:53;466.9;;;-146.1;100.0
45864;BME280;31579;52.354;16.974;2023-05-20T00:16:57;468.7;;;-146.1;100.0
45864;BME280;31579;52.354;16.974;2023-05-20T00:18:01;468.6;;;-146.1;100.0
45864;BME280;31579;52.354;16.974;2023-05-20T00:19:04;474.1;;;-146.1;100.0
45864;BME280;31579;52.354;16.974;2023-05-20T00:20:08;469.6;;;-146.1;100.0
45864;BME280;31579;52.354;16.974;2023-05-20T00:21:12;470.1;;;-146.1;100.0
45864;BME280;31579;52.354;16.974;2023-05-20T00:22:16;471.4;;;-146.1;100.0
45864;BME280;31579;52.354;16.974;2023-05-20T00:23:20;470.5;;;-146.1;100.0
45864;BME280;31579;52.354;16.974;2023-05-20T00:24:24;470.2;;;-146.1;100.0
45864;BME280;31579;52.354;16.974;2023-05-20T00:25:28;471.6;;;-146.1;100.0
45864;BME280;31579;52.354;16.974;2023-05-20T00:26:32;471.9;;;-146.1;100.0
45864;BME280;31579;52.354;16.974;2023-05-20T00:27:36;473.0;;;-146.1;100.0
45864;BME280;31579;52.354;16.974;2023-05-20T00:28:40;472.1;;;-146.1;100.0
45864;BME280;31579;52.354;16.974;2023-05-20T00:29:44;472.4;;;-146.1;100.0
45864;BME280;31579;52.354;16.974;2023-05-20T00:30:48;472.6;;;-146.1;100.0
45864;BME280;31579;52.354;16.974;2023-05-20T00:31:53;472.8;;;-146.1;100.0
45864;BME280;31579;52.354;16.974;2023-05-20T00:32:57;473.3;;;-146.1;100.0
45864;BME280;31579;52.354;16.974;2023-05-20T00:34:02;473.8;;;-146.1;100.0
45864;BME280;31579;52.354;16.974;2023-05-20T00:35:06;474.4;;;-146.1;100.0
45864;BME280;31579;52.354;16.974;2023-05-20T00:36:10;474.1;;;-146.1;100.0
45864;BME280;31579;52.354;16.974;2023-05-20T00:37:14;474.0;;;-146.1;100.0
45864;BME280;31579;52.354;16.974;2023-05-20T00:38:18;474.8;;;-146.1;100.0
45864;BME280;31579;52.354;16.974;2023-05-20T00:39:22;474.0;;;-146.1;100.0
45864;BME280;31579;52.354;16.974;2023-05-20T00:40:26;474.7;;;-146.1;100.0
45864;BME280;31579;52.354;16.974;2023-05-20T00:41:30;475.6;;;-146.1;100.0
45864;BME280;31579;52.354;16.974;2023-05-20T00:42:34;476.4;;;-146.1;100.0
45864;BME280;31579;52.354;16.974;2023-05-20T00:43:38;477.7;;;-146.1;100.0
45864;BME280;31579;52.354;16.974;2023-05-20T00:44:42;477.3;;;-146.1;100.0
45864;BME280;31579;52.354;16.974;2023-05-20T00:45:46;478.1;;;-146.1;100.0
45864;BME280;31579;52.354;16.974;2023-05-20T00:46:50;476.5;;;-146.1;100.0
45864;BME280;31579;52.354;16.974;2023-05-20T00:47:54;475.4;;;-146.1;100.0
45864;BME280;31579;52.354;16.974;2023-05-20T00:48:58;474.3;;;-146.1;100.0
45864;BME280;31579;52.354;16.974;2023-05-20T00:50:10;452.4;;;-146.1;100.0
45864;BME280;31579;52.354;16.974;2023-05-20T00:51:14;468.4;;;-146.1;100.0
45864;BME280;31579;52.354;16.974;2023-05-20T00:52:18;471.1;;;-146.1;100.0
45864;BME280;31579;52.354;16.974;2023-05-20T00:53:22;472.3;;;-146.1;100.0
45864;BME280;31579;52.354;16.974;2023-05-20T00:54:26;473.4;;;-146.1;100.0
45864;BME280;31579;52.354;16.974;2023-05-20T00:55:31;474.5;;;-146.1;100.0
45864;BME280;31579;52.354;16.974;2023-05-20T00:56:35;475.8;;;-146.1;100.0
45864;BME280;31579;52.354;16.974;2023-05-20T00:57:39;476.5;;;-146.1;100.0
45864;BME280;31579;52.354;16.974;2023-05-20T00:58:43;477.7;;;-146.1;100.0
45864;BME280;31579;52.354;16.974;2023-05-20T00:59:47;480.2;;;-146.1;100.0
45864;BME280;31579;52.354;16.974;2023-05-20T01:00:51;479.6;;;-146.1;100.0
45864;BME280;31579;52.354;16.974;2023-05-20T01:01:55;478.8;;;-146.1;100.0
45864;BME280;31579;52.354;16.974;2023-05-20T01:02:59;480.0;;;-146.1;100.0
45864;BME280;31579;52.354;16.974;2023-05-20T01:04:03;483.2;;;-146.1;100.0
45864;BME280;31579;52.354;16.974;2023-05-20T01:05:07;479.3;;;-146.1;100.0
45864;BME280;31579;52.354;16.974;2023-05-20T01:06:11;478.5;;;-146.1;100.0
45864;BME280;31579;52.354;16.974;2023-05-20T01:07:15;479.5;;;-146.1;100.0
45864;BME280;31579;52.354;16.974;2023-05-20T01:08:19;478.0;;;-146.1;100.0
45864;BME280;31579;52.354;16.974;2023-05-20T01:09:23;477.1;;;-146.1;100.0
45864;BME280;31579;52.354;16.974;2023-05-20T01:10:27;477.2;;;-146.1;100.0
45864;BME280;31579;52.354;16.974;2023-05-20T01:11:33;477.0;;;-146.1;100.0
45864;BME280;31579;52.354;16.974;2023-05-20T01:13:44;476.6;;;-146.1;100.0
45864;BME280;31579;52.354;16.974;2023-05-20T01:15:47;478.7;;;-146.1;100.0
45864;BME280;31579;52.354;16.974;2023-05-20T01:16:51;479.3;;;-146.1;100.0
45864;BME280;31579;52.354;16.974;2023-05-20T01:17:56;478.2;;;-146.1;100.0
45864;BME280;31579;52.354;16.974;2023-05-20T01:18:59;478.3;;;-146.1;100.0
45864;BME280;31579;52.354;16.974;2023-05-20T01:20:03;478.3;;;-146.1;100.0
45864;BME280;31579;52.354;16.974;2023-05-20T01:21:07;476.1;;;-146.1;100.0
45864;BME280;31579;52.354;16.974;2023-05-20T01:22:12;476.7;;;-146.1;100.0
45864;BME280;31579;52.354;16.974;2023-05-20T01:23:15;477.4;;;-146.1;100.0
45864;BME280;31579;52.354;16.974;2023-05-20T01:24:19;476.9;;;-146.1;100.0
45864;BME280;31579;52.354;16.974;2023-05-20T01:25:23;477.6;;;-146.1;100.0
45864;BME280;31579;52.354;16.974;2023-05-20T01:26:27;477.5;;;-146.1;100.0
45864;BME280;31579;52.354;16.974;2023-05-20T01:27:31;476.9;;;-146.1;100.0
45864;BME280;31579;52.354;16.974;2023-05-20T01:28:35;476.5;;;-146.1;100.0
45864;BME280;31579;52.354;16.974;2023-05-20T01:29:39;478.1;;;-146.1;100.0
45864;BME280;31579;52.354;16.974;2023-05-20T01:30:46;478.5;;;-146.1;100.0
45864;BME280;31579;52.354;16.974;2023-05-20T01:31:48;478.9;;;-146.1;100.0
45864;BME280;31579;52.354;16.974;2023-05-20T01:32:54;477.7;;;-146.1;100.0
45864;BME280;31579;52.354;16.974;2023-05-20T01:33:56;478.1;;;-146.1;100.0
45864;BME280;31579;52.354;16.974;2023-05-20T01:35:00;478.0;;;-146.1;100.0
45864;BME280;31579;52.354;16.974;2023-05-20T01:36:05;477.8;;;-146.1;100.0
45864;BME280;31579;52.354;16.974;2023-05-20T01:37:09;477.0;;;-146.1;100.0
45864;BME280;31579;52.354;16.974;2023-05-20T01:38:14;475.5;;;-146.1;100.0
45864;BME280;31579;52.354;16.974;2023-05-20T01:39:18;475.6;;;-146.1;100.0
45864;BME280;31579;52.354;16.974;2023-05-20T01:40:22;474.9;;;-146.1;100.0
45864;BME280;31579;52.354;16.974;2023-05-20T01:41:26;474.7;;;-146.1;100.0
45864;BME280;31579;52.354;16.974;2023-05-20T01:42:30;473.8;;;-146.1;100.0
45864;BME280;31579;52.354;16.974;2023-05-20T01:43:34;473.3;;;-146.1;100.0
45864;BME280;31579;52.354;16.974;2023-05-20T01:44:38;474.3;;;-146.1;100.0
45864;BME280;31579;52.354;16.974;2023-05-20T01:45:42;474.5;;;-146.1;100.0
45864;BME280;31579;52.354;16.974;2023-05-20T01:47:50;473.6;;;-146.1;100.0
45864;BME280;31579;52.354;16.974;2023-05-20T01:48:54;472.2;;;-146.1;100.0
45864;BME280;31579;52.354;16.974;2023-05-20T01:49:58;471.7;;;-146.1;100.0
45864;BME280;31579;52.354;16.974;2023-05-20T01:51:00;480.6;;;-146.1;100.0
45864;BME280;31579;52.354;16.974;2023-05-20T01:52:03;479.9;;;-146.1;100.0
45864;BME280;31579;52.354;16.974;2023-05-20T01:53:07;477.0;;;-146.1;100.0
45864;BME280;31579;52.354;16.974;2023-05-20T01:54:11;476.7;;;-146.1;100.0
45864;BME280;31579;52.354;16.974;2023-05-20T01:55:15;476.3;;;-146.1;100.0
45864;BME280;31579;52.354;16.974;2023-05-20T01:56:20;476.3;;;-146.1;100.0
45864;BME280;31579;52.354;16.974;2023-05-20T01:57:24;475.5;;;-146.1;100.0
45864;BME280;31579;52.354;16.974;2023-05-20T01:58:28;475.2;;;-146.1;100.0
45864;BME280;31579;52.354;16.974;2023-05-20T01:59:32;474.2;;;-146.1;100.0
45864;BME280;31579;52.354;16.974;2023-05-20T02:00:36;474.7;;;-146.1;100.0
45864;BME280;31579;52.354;16.974;2023-05-20T02:01:40;474.3;;;-146.1;100.0
45864;BME280;31579;52.354;16.974;2023-05-20T02:02:44;475.4;;;-146.1;100.0
45864;BME280;31579;52.354;16.974;2023-05-20T02:03:49;476.6;;;-146.1;100.0
45864;BME280;31579;52.354;16.974;2023-05-20T02:04:53;475.9;;;-146.1;100.0
45864;BME280;31579;52.354;16.974;2023-05-20T02:05:57;475.4;;;-146.1;100.0
45864;BME280;31579;52.354;16.974;2023-05-20T02:07:01;473.7;;;-146.1;100.0
45864;BME280;31579;52.354;16.974;2023-05-20T02:08:05;472.7;;;-146.1;100.0
45864;BME280;31579;52.354;16.974;2023-05-20T02:09:09;472.2;;;-146.1;100.0
45864;BME280;31579;52.354;16.974;2023-05-20T02:10:13;470.7;;;-146.1;100.0
45864;BME280;31579;52.354;16.974;2023-05-20T02:11:17;470.2;;;-146.1;100.0
45864;BME280;31579;52.354;16.974;2023-05-20T02:12:21;471.5;;;-146.1;100.0
45864;BME280;31579;52.354;16.974;2023-05-20T02:13:25;472.3;;;-146.1;100.0
45864;BME280;31579;52.354;16.974;2023-05-20T02:14:29;472.4;;;-146.1;100.0
45864;BME280;31579;52.354;16.974;2023-05-20T02:15:33;473.3;;;-146.1;100.0
45864;BME280;31579;52.354;16.974;2023-05-20T02:16:37;475.2;;;-146.1;100.0
45864;BME280;31579;52.354;16.974;2023-05-20T02:17:41;473.0;;;-146.1;100.0
45864;BME280;31579;52.354;16.974;2023-05-20T02:18:45;473.0;;;-146.1;100.0
45864;BME280;31579;52.354;16.974;2023-05-20T02:19:49;473.7;;;-146.1;100.0
45864;BME280;31579;52.354;16.974;2023-05-20T02:20:53;473.3;;;-146.1;100.0
45864;BME280;31579;52.354;16.974;2023-05-20T02:22:05;430.1;;;-146.1;100.0
45864;BME280;31579;52.354;16.974;2023-05-20T02:23:08;464.2;;;-146.1;100.0
45864;BME280;31579;52.354;16.974;2023-05-20T02:24:12;467.6;;;-146.1;100.0
45864;BME280;31579;52.354;16.974;2023-05-20T02:25:16;470.3;;;-146.1;100.0
45864;BME280;31579;52.354;16.974;2023-05-20T02:26:20;472.2;;;-146.1;100.0
45864;BME280;31579;52.354;16.974;2023-05-20T02:27:24;470.3;;;-146.1;100.0
45864;BME280;31579;52.354;16.974;2023-05-20T02:28:28;469.9;;;-146.1;100.0
45864;BME280;31579;52.354;16.974;2023-05-20T02:29:32;470.1;;;-146.1;100.0
45864;BME280;31579;52.354;16.974;2023-05-20T02:30:37;470.5;;;-146.1;100.0
45864;BME280;31579;52.354;16.974;2023-05-20T02:31:40;470.6;;;-146.1;100.0
45864;BME280;31579;52.354;16.974;2023-05-20T02:32:44;472.0;;;-146.1;100.0
45864;BME280;31579;52.354;16.974;2023-05-20T02:33:48;471.6;;;-146.1;100.0
45864;BME280;31579;52.354;16.974;2023-05-20T02:34:53;471.3;;;-146.1;100.0
45864;BME280;31579;52.354;16.974;2023-05-20T02:35:56;471.0;;;-146.1;100.0
45864;BME280;31579;52.354;16.974;2023-05-20T02:37:00;471.0;;;-146.1;100.0
45864;BME280;31579;52.354;16.974;2023-05-20T02:38:03;474.7;;;-146.1;100.0
45864;BME280;31579;52.354;16.974;2023-05-20T02:39:08;470.3;;;-146.1;100.0
45864;BME280;31579;52.354;16.974;2023-05-20T02:40:12;470.7;;;-146.1;100.0
45864;BME280;31579;52.354;16.974;2023-05-20T02:41:16;470.8;;;-146.1;100.0
45864;BME280;31579;52.354;16.974;2023-05-20T02:42:20;471.4;;;-146.1;100.0
45864;BME280;31579;52.354;16.974;2023-05-20T02:43:24;470.4;;;-146.1;100.0
45864;BME280;31579;52.354;16.974;2023-05-20T02:44:28;470.1;;;-146.1;100.0
45864;BME280;31579;52.354;16.974;2023-05-20T02:45:32;470.5;;;-146.1;100.0
45864;BME280;31579;52.354;16.974;2023-05-20T02:46:36;471.0;;;-146.1;100.0
45864;BME280;31579;52.354;16.974;2023-05-20T02:47:40;471.3;;;-146.1;100.0
45864;BME280;31579;52.354;16.974;2023-05-20T02:48:44;471.9;;;-146.1;100.0
45864;BME280;31579;52.354;16.974;2023-05-20T02:49:48;472.4;;;-146.1;100.0
45864;BME280;31579;52.354;16.974;2023-05-20T02:50:52;472.3;;;-146.1;100.0
45864;BME280;31579;52.354;16.974;2023-05-20T02:51:56;471.0;;;-146.1;100.0
45864;BME280;31579;52.354;16.974;2023-05-20T02:52:58;479.4;;;-146.1;100.0
45864;BME280;31579;52.354;16.974;2023-05-20T02:54:01;476.7;;;-146.1;100.0
45864;BME280;31579;52.354;16.974;2023-05-20T02:55:05;473.6;;;-146.1;100.0
45864;BME280;31579;52.354;16.974;2023-05-20T02:56:09;472.4;;;-146.1;100.0
45864;BME280;31579;52.354;16.974;2023-05-20T02:57:14;470.6;;;-146.1;100.0
45864;BME280;31579;52.354;16.974;2023-05-20T02:58:18;470.8;;;-146.1;100.0
45864;BME280;31579;52.354;16.974;2023-05-20T02:59:22;471.1;;;-146.1;100.0
45864;BME280;31579;52.354;16.974;2023-05-20T03:00:26;471.0;;;-146.1;100.0
45864;BME280;31579;52.354;16.974;2023-05-20T03:01:30;471.1;;;-146.1;100.0
45864;BME280;31579;52.354;16.974;2023-05-20T03:02:34;472.1;;;-146.1;100.0
45864;BME280;31579;52.354;16.974;2023-05-20T03:03:38;472.8;;;-146.1;100.0
45864;BME280;31579;52.354;16.974;2023-05-20T03:04:42;472.9;;;-146.1;100.0
45864;BME280;31579;52.354;16.974;2023-05-20T03:05:46;472.9;;;-146.1;100.0
45864;BME280;31579;52.354;16.974;2023-05-20T03:06:50;471.6;;;-146.1;100.0
45864;BME280;31579;52.354;16.974;2023-05-20T03:07:54;470.9;;;-146.1;100.0
45864;BME280;31579;52.354;16.974;2023-05-20T03:08:58;474.3;;;-146.1;100.0
45864;BME280;31579;52.354;16.974;2023-05-20T03:10:00;478.3;;;-146.1;100.0
45864;BME280;31579;52.354;16.974;2023-05-20T03:11:03;476.3;;;-146.1;100.0
45864;BME280;31579;52.354;16.974;2023-05-20T03:12:07;471.2;;;-146.1;100.0
45864;BME280;31579;52.354;16.974;2023-05-20T03:13:11;471.3;;;-146.1;100.0
45864;BME280;31579;52.354;16.974;2023-05-20T03:14:15;470.5;;;-146.1;100.0
45864;BME280;31579;52.354;16.974;2023-05-20T03:15:19;467.0;;;-146.1;100.0
45864;BME280;31579;52.354;16.974;2023-05-20T03:16:23;466.6;;;-146.1;100.0
45864;BME280;31579;52.354;16.974;2023-05-20T03:17:27;467.5;;;-146.1;100.0
45864;BME280;31579;52.354;16.974;2023-05-20T03:18:31;467.9;;;-146.1;100.0
45864;BME280;31579;52.354;16.974;2023-05-20T03:19:35;467.4;;;-146.1;100.0
45864;BME280;31579;52.354;16.974;2023-05-20T03:20:39;467.0;;;-146.1;100.0
45864;BME280;31579;52.354;16.974;2023-05-20T03:21:43;466.6;;;-146.1;100.0
45864;BME280;31579;52.354;16.974;2023-05-20T03:22:47;467.1;;;-146.1;100.0
45864;BME280;31579;52.354;16.974;2023-05-20T03:23:51;468.5;;;-146.1;100.0
45864;BME280;31579;52.354;16.974;2023-05-20T03:24:55;467.2;;;-146.1;100.0
45864;BME280;31579;52.354;16.974;2023-05-20T03:25:58;470.8;;;-146.1;100.0
45864;BME280;31579;52.354;16.974;2023-05-20T03:27:00;477.1;;;-146.1;100.0
45864;BME280;31579;52.354;16.974;2023-05-20T03:28:05;471.3;;;-146.1;100.0
45864;BME280;31579;52.354;16.974;2023-05-20T03:29:16;454.7;;;-146.1;100.0
45864;BME280;31579;52.354;16.974;2023-05-20T03:30:20;463.3;;;-146.1;100.0
45864;BME280;31579;52.354;16.974;2023-05-20T03:31:24;464.4;;;-146.1;100.0
45864;BME280;31579;52.354;16.974;2023-05-20T03:32:28;466.1;;;-146.1;100.0
45864;BME280;31579;52.354;16.974;2023-05-20T03:33:33;467.2;;;-146.1;100.0
45864;BME280;31579;52.354;16.974;2023-05-20T03:34:36;467.2;;;-146.1;100.0
45864;BME280;31579;52.354;16.974;2023-05-20T03:35:40;465.1;;;-146.1;100.0
45864;BME280;31579;52.354;16.974;2023-05-20T03:36:44;465.7;;;-146.1;100.0
45864;BME280;31579;52.354;16.974;2023-05-20T03:37:48;466.0;;;-146.1;100.0
45864;BME280;31579;52.354;16.974;2023-05-20T03:38:53;466.8;;;-146.1;100.0
45864;BME280;31579;52.354;16.974;2023-05-20T03:39:57;466.7;;;-146.1;100.0
45864;BME280;31579;52.354;16.974;2023-05-20T03:41:01;466.5;;;-146.1;100.0
45864;BME280;31579;52.354;16.974;2023-05-20T03:42:05;465.7;;;-146.1;100.0
45864;BME280;31579;52.354;16.974;2023-05-20T03:43:09;464.8;;;-146.1;100.0
45864;BME280;31579;52.354;16.974;2023-05-20T03:44:13;465.1;;;-146.1;100.0
45864;BME280;31579;52.354;16.974;2023-05-20T03:45:17;464.9;;;-146.1;100.0
45864;BME280;31579;52.354;16.974;2023-05-20T03:46:21;464.3;;;-146.1;100.0
45864;BME280;31579;52.354;16.974;2023-05-20T03:47:26;464.6;;;-146.1;100.0
45864;BME280;31579;52.354;16.974;2023-05-20T03:48:29;463.5;;;-146.1;100.0
45864;BME280;31579;52.354;16.974;2023-05-20T03:49:33;463.0;;;-146.1;100.0
45864;BME280;31579;52.354;16.974;2023-05-20T03:50:37;464.0;;;-146.1;100.0
45864;BME280;31579;52.354;16.974;2023-05-20T03:51:41;463.5;;;-146.1;100.0
45864;BME280;31579;52.354;16.974;2023-05-20T03:52:45;463.6;;;-146.1;100.0
45864;BME280;31579;52.354;16.974;2023-05-20T03:53:49;463.8;;;-146.1;100.0
45864;BME280;31579;52.354;16.974;2023-05-20T03:54:53;465.5;;;-146.1;100.0
45864;BME280;31579;52.354;16.974;2023-05-20T03:55:57;465.7;;;-146.1;100.0
45864;BME280;31579;52.354;16.974;2023-05-20T03:57:01;464.2;;;-146.1;100.0
45864;BME280;31579;52.354;16.974;2023-05-20T03:58:06;463.7;;;-146.1;100.0
45864;BME280;31579;52.354;16.974;2023-05-20T03:59:17;455.2;;;-146.1;100.0
45864;BME280;31579;52.354;16.974;2023-05-20T04:00:20;459.8;;;-146.1;100.0
45864;BME280;31579;52.354;16.974;2023-05-20T04:01:24;460.8;;;-146.1;100.0
45864;BME280;31579;52.354;16.974;2023-05-20T04:02:28;462.1;;;-146.1;100.0
45864;BME280;31579;52.354;16.974;2023-05-20T04:03:32;461.2;;;-146.1;100.0
45864;BME280;31579;52.354;16.974;2023-05-20T04:04:36;462.0;;;-146.1;100.0
45864;BME280;31579;52.354;16.974;2023-05-20T04:05:40;462.7;;;-146.1;100.0
45864;BME280;31579;52.354;16.974;2023-05-20T04:06:44;463.1;;;-146.1;100.0
45864;BME280;31579;52.354;16.974;2023-05-20T04:07:48;462.1;;;-146.1;100.0
45864;BME280;31579;52.354;16.974;2023-05-20T04:08:52;461.8;;;-146.1;100.0
45864;BME280;31579;52.354;16.974;2023-05-20T04:09:56;461.6;;;-146.1;100.0
45864;BME280;31579;52.354;16.974;2023-05-20T04:11:01;463.5;;;-146.1;100.0
45864;BME280;31579;52.354;16.974;2023-05-20T04:12:05;463.9;;;-146.1;100.0
45864;BME280;31579;52.354;16.974;2023-05-20T04:13:09;463.8;;;-146.1;100.0
45864;BME280;31579;52.354;16.974;2023-05-20T04:14:13;463.7;;;-146.1;100.0
45864;BME280;31579;52.354;16.974;2023-05-20T04:15:17;462.9;;;-146.1;100.0
45864;BME280;31579;52.354;16.974;2023-05-20T04:16:21;463.2;;;-146.1;100.0
45864;BME280;31579;52.354;16.974;2023-05-20T04:17:28;463.8;;;-146.1;100.0
45864;BME280;31579;52.354;16.974;2023-05-20T04:18:29;463.4;;;-146.1;100.0
45864;BME280;31579;52.354;16.974;2023-05-20T04:19:33;463.9;;;-146.1;100.0
45864;BME280;31579;52.354;16.974;2023-05-20T04:20:37;464.3;;;-146.1;100.0
45864;BME280;31579;52.354;16.974;2023-05-20T04:21:41;463.3;;;-146.1;100.0
45864;BME280;31579;52.354;16.974;2023-05-20T04:22:45;463.3;;;-146.1;100.0
45864;BME280;31579;52.354;16.974;2023-05-20T04:23:49;464.2;;;-146.1;100.0
45864;BME280;31579;52.354;16.974;2023-05-20T04:24:53;465.3;;;-146.1;100.0
45864;BME280;31579;52.354;16.974;2023-05-20T04:25:57;466.0;;;-146.1;100.0
45864;BME280;31579;52.354;16.974;2023-05-20T04:27:01;464.6;;;-146.1;100.0
45864;BME280;31579;52.354;16.974;2023-05-20T04:28:05;465.9;;;-146.1;100.0
45864;BME280;31579;52.354;16.974;2023-05-20T04:29:15;457.9;;;-146.1;100.0
45864;BME280;31579;52.354;16.974;2023-05-20T04:30:19;463.4;;;-146.1;100.0
45864;BME280;31579;52.354;16.974;2023-05-20T04:31:24;462.3;;;-146.1;100.0
45864;BME280;31579;52.354;16.974;2023-05-20T04:32:27;464.0;;;-146.1;100.0
45864;BME280;31579;52.354;16.974;2023-05-20T04:33:32;462.3;;;-146.1;100.0
45864;BME280;31579;52.354;16.974;2023-05-20T04:34:36;461.7;;;-146.1;100.0
45864;BME280;31579;52.354;16.974;2023-05-20T04:35:40;462.1;;;-146.1;100.0
45864;BME280;31579;52.354;16.974;2023-05-20T04:36:44;461.6;;;-146.1;100.0
45864;BME280;31579;52.354;16.974;2023-05-20T04:37:48;462.0;;;-146.1;100.0
45864;BME280;31579;52.354;16.974;2023-05-20T04:38:54;463.6;;;-146.1;100.0
45864;BME280;31579;52.354;16.974;2023-05-20T04:39:56;464.1;;;-146.1;100.0
45864;BME280;31579;52.354;16.974;2023-05-20T04:41:01;463.8;;;-146.1;100.0
45864;BME280;31579;52.354;16.974;2023-05-20T04:42:05;466.1;;;-146.1;100.0
45864;BME280;31579;52.354;16.974;2023-05-20T04:43:10;467.1;;;-146.1;100.0
45864;BME280;31579;52.354;16.974;2023-05-20T04:44:14;467.7;;;-146.1;100.0
45864;BME280;31579;52.354;16.974;2023-05-20T04:45:18;466.0;;;-146.1;100.0
45864;BME280;31579;52.354;16.974;2023-05-20T04:46:22;465.8;;;-146.1;100.0
45864;BME280;31579;52.354;16.974;2023-05-20T04:47:27;466.0;;;-146.1;100.0
45864;BME280;31579;52.354;16.974;2023-05-20T04:48:31;465.8;;;-146.1;100.0
45864;BME280;31579;52.354;16.974;2023-05-20T04:49:34;465.5;;;-146.1;100.0
45864;BME280;31579;52.354;16.974;2023-05-20T04:50:38;465.8;;;-146.1;100.0
45864;BME280;31579;52.354;16.974;2023-05-20T04:51:43;465.2;;;-146.1;100.0
45864;BME280;31579;52.354;16.974;2023-05-20T04:52:46;465.9;;;-146.1;100.0
45864;BME280;31579;52.354;16.974;2023-05-20T04:53:50;466.2;;;-146.1;100.0
45864;BME280;31579;52.354;16.974;2023-05-20T04:54:54;468.8;;;-146.1;100.0
45864;BME280;31579;52.354;16.974;2023-05-20T04:55:58;466.3;;;-146.1;100.0
45864;BME280;31579;52.354;16.974;2023-05-20T04:57:15;458.4;;;-146.1;100.0
45864;BME280;31579;52.354;16.974;2023-05-20T04:58:19;464.0;;;-146.1;100.0
45864;BME280;31579;52.354;16.974;2023-05-20T04:59:23;466.0;;;-146.1;100.0
45864;BME280;31579;52.354;16.974;2023-05-20T05:00:28;467.1;;;-146.1;100.0
45864;BME280;31579;52.354;16.974;2023-05-20T05:01:32;465.4;;;-146.1;100.0
45864;BME280;31579;52.354;16.974;2023-05-20T05:02:36;464.8;;;-146.1;100.0
45864;BME280;31579;52.354;16.974;2023-05-20T05:03:40;466.0;;;-146.1;100.0
45864;BME280;31579;52.354;16.974;2023-05-20T05:04:44;467.3;;;-146.1;100.0
45864;BME280;31579;52.354;16.974;2023-05-20T05:05:48;466.2;;;-146.1;100.0
45864;BME280;31579;52.354;16.974;2023-05-20T05:06:52;464.0;;;-146.1;100.0
45864;BME280;31579;52.354;16.974;2023-05-20T05:07:56;463.4;;;-146.1;100.0
45864;BME280;31579;52.354;16.974;2023-05-20T05:09:00;464.0;;;-146.1;100.0
45864;BME280;31579;52.354;16.974;2023-05-20T05:10:04;468.8;;;-146.1;100.0
45864;BME280;31579;52.354;16.974;2023-05-20T05:11:08;466.2;;;-146.1;100.0
45864;BME280;31579;52.354;16.974;2023-05-20T05:12:10;472.9;;;-146.1;100.0
45864;BME280;31579;52.354;16.974;2023-05-20T05:13:15;468.2;;;-146.1;100.0
45864;BME280;31579;52.354;16.974;2023-05-20T05:14:19;467.2;;;-146.1;100.0
45864;BME280;31579;52.354;16.974;2023-05-20T05:15:23;467.7;;;-146.1;100.0
45864;BME280;31579;52.354;16.974;2023-05-20T05:16:27;467.2;;;-146.1;100.0
45864;BME280;31579;52.354;16.974;2023-05-20T05:17:31;467.0;;;-146.1;100.0
45864;BME280;31579;52.354;16.974;2023-05-20T05:18:35;467.3;;;-146.1;100.0
45864;BME280;31579;52.354;16.974;2023-05-20T05:19:39;467.3;;;-146.1;100.0
45864;BME280;31579;52.354;16.974;2023-05-20T05:20:43;467.8;;;-146.1;100.0
45864;BME280;31579;52.354;16.974;2023-05-20T05:21:47;468.5;;;-146.1;100.0
45864;BME280;31579;52.354;16.974;2023-05-20T05:22:51;467.9;;;-146.1;100.0
45864;BME280;31579;52.354;16.974;2023-05-20T05:23:55;469.2;;;-146.1;100.0
45864;BME280;31579;52.354;16.974;2023-05-20T05:24:59;468.5;;;-146.1;100.0
45864;BME280;31579;52.354;16.974;2023-05-20T05:26:01;475.6;;;-146.1;100.0
45864;BME280;31579;52.354;16.974;2023-05-20T05:27:04;474.8;;;-146.1;100.0
45864;BME280;31579;52.354;16.974;2023-05-20T05:28:08;470.5;;;-146.1;100.0
45864;BME280;31579;52.354;16.974;2023-05-20T05:29:12;468.6;;;-146.1;100.0
45864;BME280;31579;52.354;16.974;2023-05-20T05:30:16;467.7;;;-146.1;100.0
45864;BME280;31579;52.354;16.974;2023-05-20T05:31:20;467.3;;;-146.1;100.0
45864;BME280;31579;52.354;16.974;2023-05-20T05:32:24;468.1;;;-146.1;100.0
45864;BME280;31579;52.354;16.974;2023-05-20T05:33:28;467.1;;;-146.1;100.0
45864;BME280;31579;52.354;16.974;2023-05-20T05:34:32;466.3;;;-146.1;100.0
45864;BME280;31579;52.354;16.974;2023-05-20T05:35:36;467.0;;;-146.1;100.0
45864;BME280;31579;52.354;16.974;2023-05-20T05:36:40;466.1;;;-146.1;100.0
45864;BME280;31579;52.354;16.974;2023-05-20T05:37:44;465.0;;;-146.1;100.0
45864;BME280;31579;52.354;16.974;2023-05-20T05:38:48;465.4;;;-146.1;100.0
45864;BME280;31579;52.354;16.974;2023-05-20T05:39:52;465.3;;;-146.1;100.0
45864;BME280;31579;52.354;16.974;2023-05-20T05:40:56;466.6;;;-146.1;100.0
45864;BME280;31579;52.354;16.974;2023-05-20T05:42:00;466.2;;;-146.1;100.0
45864;BME280;31579;52.354;16.974;2023-05-20T05:43:04;466.1;;;-146.1;100.0
45864;BME280;31579;52.354;16.974;2023-05-20T05:44:08;466.4;;;-146.1;100.0
45864;BME280;31579;52.354;16.974;2023-05-20T05:45:12;466.6;;;-146.1;100.0
45864;BME280;31579;52.354;16.974;2023-05-20T05:46:16;466.2;;;-146.1;100.0
45864;BME280;31579;52.354;16.974;2023-05-20T05:47:20;466.3;;;-146.1;100.0